createdAt,value
2022-12-07T08:28:26.753Z,98715.97
2022-12-07T08:31:01.206Z,98720.78
2022-12-07T08:33:28.918Z,98712.44
2022-12-07T08:36:02.029Z,98712.28
2022-12-07T08:38:31.899Z,98721.44
2022-12-07T08:41:00.648Z,98716.63
2022-12-07T08:43:28.432Z,98729.16
2022-12-07T08:46:39.316Z,98722.09
2022-12-07T08:49:33.698Z,98725.47
2022-12-07T08:52:01.184Z,98720.97
2022-12-07T08:54:29.998Z,98728.53
2022-12-07T08:56:59.763Z,98729.16
2022-12-07T08:59:29.265Z,98727.06
2022-12-07T09:01:56.815Z,98731.09
2022-12-07T09:04:24.247Z,98734.47
2022-12-07T09:06:51.974Z,98734.44
2022-12-07T09:09:19.414Z,98740.88
2022-12-07T09:11:57.948Z,98730.78
2022-12-07T09:14:26.151Z,98748.44
2022-12-07T09:16:53.496Z,98752.75
2022-12-07T09:19:21.075Z,98743.47
2022-12-07T09:21:48.509Z,98758.03
2022-12-07T09:24:15.954Z,98744.59
2022-12-07T09:26:43.326Z,98746.03
2022-12-07T09:29:10.681Z,98743.31
2022-12-07T09:31:39.483Z,98754.88
2022-12-07T09:34:07.320Z,98753.56
2022-12-07T09:36:35.637Z,98751.97
2022-12-07T09:39:05.611Z,98747.31
2022-12-07T09:41:34.060Z,98747.63
2022-12-07T09:44:18.113Z,98747.66
2022-12-07T09:46:47.094Z,98749.09
2022-12-07T09:49:23.175Z,98749.75
2022-12-07T09:52:13.805Z,98743.44
2022-12-07T09:54:51.675Z,98747.34
2022-12-07T09:57:33.086Z,98754.06
2022-12-07T10:00:16.541Z,98729.97
2022-12-07T10:02:58.286Z,98733.31
2022-12-07T10:05:45.797Z,98731.88
2022-12-07T10:08:14.977Z,98725.69
2022-12-07T10:10:42.968Z,98723.78
2022-12-07T10:13:22.541Z,98705.16
2022-12-07T10:16:05.185Z,98715.25
2022-12-07T10:18:45.430Z,98710.22
2022-12-07T10:21:25.163Z,98708.72
2022-12-07T10:24:11.358Z,98707.06
2022-12-07T10:26:54.670Z,98704.38
2022-12-07T10:29:40.394Z,98701.00
2022-12-07T10:32:36.301Z,98693.19
2022-12-07T10:35:30.281Z,98695.03
2022-12-07T10:38:01.041Z,98697.72
2022-12-07T10:40:38.748Z,98698.28
2022-12-07T10:43:20.702Z,98696.13
2022-12-07T10:47:00.679Z,98692.31
2022-12-07T10:49:50.214Z,98691.38
2022-12-07T10:53:16.586Z,98684.16
2022-12-07T10:56:56.978Z,98678.38
2022-12-07T11:00:04.002Z,98680.69
2022-12-07T11:04:25.574Z,98679.78
2022-12-07T11:07:23.215Z,98667.03
2022-12-07T11:10:19.414Z,98672.88
2022-12-07T11:14:26.333Z,98662.69
2022-12-07T11:18:20.044Z,98663.06
2022-12-07T11:21:43.743Z,98659.78
2022-12-07T11:24:49.844Z,98658.59
2022-12-07T11:27:47.665Z,98646.16
2022-12-07T11:30:26.170Z,98640.47
2022-12-07T11:33:26.976Z,98633.34
2022-12-07T11:36:37.742Z,98635.72
2022-12-07T11:39:43.487Z,98627.84
2022-12-07T11:42:38.031Z,98617.31
2022-12-07T11:45:27.956Z,98614.59
2022-12-07T11:48:23.610Z,98609.69
2022-12-07T11:50:58.171Z,98608.66
2022-12-07T11:53:50.490Z,98607.47
2022-12-07T11:56:23.827Z,98602.50
2022-12-07T11:59:21.918Z,98603.53
2022-12-07T12:02:32.846Z,98608.59
2022-12-07T12:05:24.976Z,98606.06
2022-12-07T12:16:22.185Z,98581.72
2022-12-07T12:19:23.659Z,98582.13
2022-12-07T12:22:18.403Z,98572.44
2022-12-07T12:24:53.134Z,98567.06
2022-12-07T12:27:37.205Z,98573.09
2022-12-07T12:30:39.078Z,98572.91
2022-12-07T12:33:32.053Z,98559.13
2022-12-07T12:36:22.185Z,98566.63
2022-12-07T12:38:59.899Z,98555.22
2022-12-07T12:41:39.126Z,98556.84
2022-12-07T12:44:19.538Z,98550.19
2022-12-07T12:46:59.427Z,98549.91
2022-12-07T12:49:26.542Z,98548.31
2022-12-07T12:52:39.775Z,98543.31
2022-12-07T12:55:10.032Z,98541.72
2022-12-07T12:57:38.421Z,98537.78
2022-12-07T13:00:23.333Z,98531.66
2022-12-07T13:02:57.526Z,98534.25
2022-12-07T13:05:32.205Z,98531.16
2022-12-07T13:08:27.050Z,98538.53
2022-12-07T13:11:40.705Z,98529.63
2022-12-07T13:14:41.713Z,98528.81
2022-12-07T13:17:33.828Z,98522.44
2022-12-07T13:20:12.776Z,98521.41
2022-12-07T13:22:50.340Z,98522.31
2022-12-07T13:25:37.388Z,98524.13
2022-12-07T13:28:22.730Z,98519.00
2022-12-07T13:31:34.697Z,98516.38
2022-12-07T13:34:33.670Z,98509.69
2022-12-07T13:37:36.710Z,98511.69
2022-12-07T13:40:23.859Z,98497.88
2022-12-07T13:43:13.818Z,98500.72
2022-12-07T13:45:52.550Z,98507.19
2022-12-07T13:48:48.844Z,98496.63
2022-12-07T13:51:35.069Z,98492.28
2022-12-07T13:54:12.691Z,98487.25
2022-12-07T13:56:41.027Z,98490.81
2022-12-07T13:59:26.194Z,98492.81
2022-12-07T14:01:54.911Z,98489.97
2022-12-07T14:04:39.278Z,98491.78
2022-12-07T14:07:28.841Z,98489.91
2022-12-07T14:10:49.402Z,98486.41
2022-12-07T14:13:51.035Z,98483.81
2022-12-07T14:16:38.052Z,98484.84
2022-12-07T14:19:48.679Z,98491.66
2022-12-07T14:22:39.235Z,98488.94
2022-12-07T14:25:19.179Z,98485.72
2022-12-07T14:27:59.346Z,98476.84
2022-12-07T14:30:35.254Z,98482.88
2022-12-07T14:33:06.648Z,98483.06
2022-12-07T14:35:34.380Z,98477.25
2022-12-07T14:38:01.715Z,98477.81
2022-12-07T14:40:31.163Z,98477.38
2022-12-07T14:43:13.997Z,98482.75
2022-12-07T14:45:42.685Z,98472.59
2022-12-07T14:53:57.305Z,98469.66
2022-12-07T14:56:26.607Z,98470.25
2022-12-07T14:58:53.971Z,98465.97
2022-12-07T15:01:21.442Z,98474.31
2022-12-07T15:03:48.925Z,98461.25
2022-12-07T15:06:19.822Z,98468.16
2022-12-07T15:08:47.737Z,98474.88
2022-12-07T15:11:18.216Z,98466.78
2022-12-07T15:14:04.201Z,98470.41
2022-12-07T15:16:52.566Z,98462.59
2022-12-07T15:19:28.960Z,98471.72
2022-12-07T15:22:01.062Z,98469.84
2022-12-07T15:24:28.711Z,98471.03
2022-12-07T15:26:56.085Z,98463.22
2022-12-07T15:29:24.147Z,98468.69
2022-12-07T15:31:57.050Z,98467.16
2022-12-07T15:34:33.487Z,98471.16
2022-12-07T15:37:05.732Z,98468.69
2022-12-07T15:39:33.376Z,98464.84
2022-12-07T15:42:00.780Z,98467.31
2022-12-07T15:44:46.617Z,98460.38
2022-12-07T15:47:14.047Z,98459.47
2022-12-07T15:49:41.753Z,98463.84
2022-12-07T15:52:09.159Z,98456.66
2022-12-07T15:54:36.532Z,98456.78
2022-12-07T15:57:04.063Z,98456.78
2022-12-07T15:59:31.587Z,98456.25
2022-12-07T16:01:59.960Z,98448.22
2022-12-07T16:04:30.534Z,98451.94
2022-12-07T16:06:58.507Z,98445.44
2022-12-07T16:09:26.393Z,98442.28
2022-12-07T16:11:53.876Z,98447.94
2022-12-07T16:14:21.682Z,98444.00
2022-12-07T16:16:49.883Z,98442.09
2022-12-07T16:19:17.245Z,98431.53
2022-12-07T16:21:44.861Z,98434.06
2022-12-07T16:24:13.668Z,98430.13
2022-12-07T16:26:46.296Z,98442.28
2022-12-07T16:29:20.037Z,98435.22
2022-12-07T16:31:49.397Z,98430.06
2022-12-07T16:34:16.953Z,98434.63
2022-12-07T16:39:34.324Z,98434.00
2022-12-07T16:42:02.135Z,98442.59
2022-12-07T16:44:29.634Z,98444.84
2022-12-07T16:46:57.194Z,98442.16
2022-12-07T16:49:25.202Z,98432.72
2022-12-07T16:52:14.791Z,98431.38
2022-12-07T16:54:40.871Z,98423.50
2022-12-07T16:57:08.255Z,98433.00
2022-12-07T16:59:35.634Z,98433.72
2022-12-07T17:02:03.207Z,98430.13
2022-12-07T17:04:31.011Z,98434.72
2022-12-07T17:06:59.426Z,98435.13
2022-12-07T17:09:27.120Z,98427.13
2022-12-07T17:11:54.457Z,98427.97
2022-12-07T17:14:40.332Z,98428.69
2022-12-07T17:17:07.778Z,98422.31
2022-12-07T17:19:35.248Z,98424.13
2022-12-07T17:22:02.674Z,98416.22
2022-12-07T17:24:30.157Z,98418.25
2022-12-07T17:26:57.512Z,98419.84
2022-12-07T17:29:24.891Z,98418.34
2022-12-07T17:31:52.373Z,98418.31
2022-12-07T17:34:19.974Z,98415.75
2022-12-07T17:36:47.995Z,98411.94
2022-12-07T17:39:19.510Z,98416.84
2022-12-07T17:42:06.786Z,98410.91
2022-12-07T17:44:34.222Z,98412.00
2022-12-07T17:47:03.924Z,98408.25
2022-12-07T17:49:31.901Z,98404.31
2022-12-07T17:52:17.734Z,98406.16
2022-12-07T17:54:45.198Z,98407.22
2022-12-07T17:57:12.647Z,98405.59
2022-12-07T17:59:40.067Z,98406.44
2022-12-07T18:02:08.796Z,98409.34
2022-12-07T18:04:36.213Z,98400.75
2022-12-07T18:07:06.730Z,98407.22
2022-12-07T18:09:34.066Z,98409.25
2022-12-07T18:12:02.600Z,98409.59
2022-12-07T18:14:30.038Z,98398.47
2022-12-07T18:16:57.517Z,98404.19
2022-12-07T18:19:25.122Z,98402.25
2022-12-07T18:21:52.507Z,98402.53
2022-12-07T18:24:20.002Z,98393.09
2022-12-07T18:26:48.235Z,98389.56
2022-12-07T18:29:18.578Z,98400.97
2022-12-07T18:31:47.724Z,98397.75
2022-12-07T18:34:19.038Z,98398.53
2022-12-07T18:36:53.206Z,98393.91
2022-12-07T18:39:20.917Z,98393.66
2022-12-07T18:41:49.043Z,98388.47
2022-12-07T18:44:18.614Z,98389.59
2022-12-07T18:46:46.462Z,98389.13
2022-12-07T18:49:15.670Z,98390.84
2022-12-07T18:51:45.248Z,98395.31
2022-12-07T18:54:12.678Z,98397.13
2022-12-07T18:56:40.180Z,98386.25
2022-12-07T18:59:26.774Z,98387.06
2022-12-07T19:01:55.267Z,98388.34
2022-12-07T19:04:23.322Z,98382.09
2022-12-07T19:06:51.621Z,98374.50
2022-12-07T19:09:20.044Z,98375.97
2022-12-07T19:11:51.173Z,98372.91
2022-12-07T19:14:23.966Z,98378.88
2022-12-07T19:16:59.440Z,98370.81
2022-12-07T19:19:40.059Z,98374.66
2022-12-07T19:22:13.117Z,98374.22
2022-12-07T19:24:40.877Z,98371.34
2022-12-07T19:27:09.357Z,98367.81
2022-12-07T19:29:36.710Z,98372.44
2022-12-07T19:32:08.704Z,98369.56
2022-12-07T19:34:43.365Z,98366.00
2022-12-07T19:37:12.896Z,98370.03
2022-12-07T19:39:43.789Z,98362.34
2022-12-07T19:42:12.397Z,98360.59
2022-12-07T19:44:39.842Z,98358.69
2022-12-07T19:47:07.326Z,98355.44
2022-12-07T19:49:36.708Z,98352.88
2022-12-07T19:52:09.246Z,98347.63
2022-12-07T19:54:37.476Z,98351.13
2022-12-07T19:57:07.573Z,98352.91
2022-12-07T19:59:35.395Z,98361.09
2022-12-07T20:02:02.860Z,98350.63
2022-12-07T20:04:35.613Z,98347.09
2022-12-07T20:07:03.615Z,98340.09
2022-12-07T20:09:31.047Z,98348.44
2022-12-07T20:12:17.072Z,98348.06
2022-12-07T20:14:44.386Z,98343.56
2022-12-07T20:17:11.874Z,98344.25
2022-12-07T20:19:40.464Z,98346.44
2022-12-07T20:22:08.839Z,98343.88
2022-12-07T20:24:36.535Z,98344.06
2022-12-07T20:27:05.259Z,98336.69
2022-12-07T20:29:32.904Z,98324.31
2022-12-07T20:32:00.375Z,98324.00
2022-12-07T20:34:27.802Z,98342.13
2022-12-07T20:36:56.032Z,98337.16
2022-12-07T20:39:24.210Z,98331.88
2022-12-07T20:42:10.463Z,98338.91
2022-12-07T20:44:38.217Z,98342.78
2022-12-07T20:47:07.034Z,98342.13
2022-12-07T20:49:34.835Z,98339.56
2022-12-07T20:52:02.766Z,98342.59
2022-12-07T20:54:30.282Z,98337.63
2022-12-07T20:56:57.746Z,98333.47
2022-12-07T20:59:25.195Z,98340.81
2022-12-07T21:01:53.349Z,98336.03
2022-12-07T21:04:20.853Z,98335.38
2022-12-07T21:06:48.384Z,98336.63
2022-12-07T21:09:15.700Z,98335.72
2022-12-07T21:11:43.095Z,98338.59
2022-12-07T21:14:10.572Z,98335.22
2022-12-07T21:16:38.004Z,98327.69
2022-12-07T21:19:06.070Z,98332.47
2022-12-07T21:21:34.781Z,98333.13
2022-12-07T21:24:05.221Z,98323.00
2022-12-07T21:26:36.118Z,98319.03
2022-12-07T21:29:07.270Z,98321.91
2022-12-07T21:31:35.668Z,98310.69
2022-12-07T21:34:08.101Z,98322.50
2022-12-07T21:36:36.425Z,98320.63
2022-12-07T21:39:05.310Z,98317.06
2022-12-07T21:41:35.844Z,98333.28
2022-12-07T21:44:07.025Z,98308.91
2022-12-07T21:46:35.072Z,98320.63
2022-12-07T21:49:10.989Z,98309.88
2022-12-07T21:51:40.738Z,98315.00
2022-12-07T21:54:08.843Z,98319.50
2022-12-07T21:56:42.112Z,98311.81
2022-12-07T21:59:15.855Z,98304.44
2022-12-07T22:01:47.443Z,98318.94
2022-12-07T22:04:20.824Z,98316.69
2022-12-07T22:06:49.372Z,98316.34
2022-12-07T22:09:18.953Z,98335.69
2022-12-07T22:11:47.081Z,98316.59
2022-12-07T22:14:32.915Z,98309.38
2022-12-07T22:17:00.418Z,98310.81
2022-12-07T22:19:27.967Z,98316.22
2022-12-07T22:21:55.387Z,98316.16
2022-12-07T22:24:22.809Z,98317.94
2022-12-07T22:26:50.102Z,98312.31
2022-12-07T22:29:17.654Z,98314.41
2022-12-07T22:31:47.930Z,98304.78
2022-12-07T22:34:19.562Z,98309.28
2022-12-07T22:36:46.954Z,98307.19
2022-12-07T22:39:14.464Z,98306.72
